Terminal Aerodrome Forecast
Issued by NWS

Home | Current Version | Previous Version | Text Only | Print | Product List | Glossary On
Versions: 1 2 3 4 5 6 7 8 9 10 11 12 13 14 15 16 17 18 19 20
796
FTUS43 KILX 232339
TAFDEC
TAF
KDEC 232339Z 2400/2424 VRB05KT P6SM VCSH BKN050 OVC080
     FM240700 32004KT 2SM BR VCSH OVC010
     FM241300 33004KT 4SM BR VCSH OVC015
     FM241600 34007KT P6SM VCSH OVC025=

USA.gov is the U.S. government's official web portal to all federal, state and local government web resources and services.